EW6254 Weather Reports


Display with metric or nautical units.
time (UTC)temp
F
wind
direction
speed
MPH
gust
MPH
rain 1hr
in
rain 24hr
in
rain mn
in
humidity
%
barometer
mb
20170428173928 38 59 8.0 20.0 0.00 0.48 0.48 93 1008.2
20170428172914 37 36 7.0 21.0 0.00 0.48 0.48 93 1008.2
20170428171930 37 349 7.0 21.0 0.00 0.48 0.48 93 1008.2
20170428170935 37 19 8.0 18.0 0.00 0.48 0.48 93 1008.2
20170428165907 36 38 8.0 18.0 0.00 0.48 0.48 92 1008.4
20170428164919 37 23 7.0 17.0 0.00 0.48 0.48 92 1008.3
20170428163855 36 45 6.0 17.0 0.07 0.48 0.48 92 1008.5
20170428162852 36 52 5.0 19.0 0.14 0.47 0.47 92 1008.9
20170428161831 36 35 8.0 19.0 0.14 0.44 0.44 92 1008.5
20170428160843 36 55 7.0 17.0 0.33 0.42 0.42 92 1008.2
20170428155832 36 96 7.0 14.0 0.05 0.38 0.38 92 1008.9
20170428154841 37 57 6.0 13.0 0.06 0.37 0.37 92 1009.2
20170428153853 37 68 3.0 13.0 0.11 0.36 0.36 92 1008.8
20170428152906 37 73 3.0 12.0 0.08 0.33 0.33 92 1008.3
20170428151900 37 74 6.0 20.0 0.08 0.32 0.32 92 1008.3
20170428150840 37 49 8.0 18.0 0.00 0.31 0.31 92 1007.8
20170428145902 36 55 6.0 19.0 0.00 0.29 0.29 92 1008.1
20170428144917 36 35 8.0 19.0 0.00 0.29 0.29 92 1007.9
20170428143905 36 106 6.0 18.0 0.04 0.29 0.29 92 1008.3
20170428142856 36 52 7.0 15.0 0.04 0.29 0.29 92 1007.9
20170428141904 36 64 8.0 19.0 0.07 0.29 0.29 92 1007.8
20170428140837 36 25 8.0 19.0 0.22 0.26 0.28 91 1007.9
20170428135826 36 92 8.0 16.0 0.00 0.26 0.26 91 1008.1
20170428134848 36 22 7.0 17.0 0.04 0.26 0.26 91 1008.1
20170428133835 36 53 8.0 17.0 0.11 0.26 0.26 91 1008.1
20170428132855 36 55 7.0 16.0 0.19 0.24 0.24 91 1008.0
20170428131843 36 5 8.0 17.0 0.04 0.21 0.21 91 1008.2
20170428130841 36 59 8.0 17.0 0.04 0.21 0.21 90 1008.2
20170428125848 36 44 6.0 14.0 0.08 0.20 0.20 90 1008.0
20170428124835 36 52 7.0 15.0 0.12 0.19 0.19 90 1008.0
20170428123759 36 82 7.0 15.0 0.22 0.16 0.16 89 1008.1
20170428122757 36 100 7.0 14.0 0.12 0.14 0.14 89 1008.2
20170428121729 37 22 7.0 16.0 0.09 0.12 0.12 88 1008.0
20170428120725 38 82 6.0 16.0 0.04 0.11 0.11 87 1007.5
20170428115733 38 82 5.0 14.0 0.07 0.10 0.10 86 1007.6
20170428114735 39 92 4.0 4.0 0.12 0.09 0.09 85 1007.7
20170428113746 39 83 3.0 14.0 0.16 0.07 0.07 84 1007.9
20170428112731 40 112 1.0 13.0 0.13 0.04 0.04 82 1008.0
20170428111712 41 101 3.0 14.0 0.08 0.02 0.02 80 1007.9
20170428110723 41 88 3.0 10.0 0.00 0.00 0.01 78 1007.7
20170428105740 41 90 6.0 19.0 0.00 0.00 0.00 76 1007.7
20170428104739 42 63 8.0 19.0 0.00 0.00 0.00 75 1007.6
20170428103709 42 90 6.0 19.0 0.00 0.00 0.00 74 1007.5
20170428102717 42 82 4.0 19.0 0.00 0.00 0.00 73 1007.4
20170428101720 42 44 5.0 0.0 0.00 0.00 0.00 73 1007.2
20170428100710 42 20 6.0 17.0 0.00 0.00 0.00 73 1007.1
20170428095715 43 71 4.0 0.0 0.00 0.00 0.00 72 1007.4
20170428094651 43 86 7.0 17.0 0.00 0.00 0.00 72 1007.4
20170428093650 43 74 7.0 15.0 0.00 0.00 0.00 71 1007.6
20170428092622 44 0 2.0 9.0 0.00 0.00 0.00 71 1007.7
20170428091645 44 0 5.0 16.0 0.00 0.00 0.00 71 1007.5
20170428090627 44 91 3.0 8.0 0.00 0.00 0.00 71 1007.6
20170428085606 44 143 8.0 17.0 0.00 0.00 0.00 71 1007.7
20170428084606 44 82 4.0 13.0 0.00 0.00 0.00 71 1007.7
20170428083555 45 47 3.0 8.0 0.00 0.00 0.00 71 1007.8
20170428082536 45 104 7.0 16.0 0.00 0.00 0.00 71 1007.6
20170428081503 45 88 8.0 16.0 0.00 0.00 0.00 70 1007.5
20170428080514 45 112 4.0 15.0 0.00 0.00 0.00 70 1007.5
20170428075445 45 0 4.0 10.0 0.00 0.00 0.00 69 1007.5
20170428074455 45 0 5.0 12.0 0.00 0.00 0.00 68 1007.6
20170428073420 46 0 4.0 13.0 0.00 0.00 0.00 68 1007.8
20170428072409 46 0 2.0 11.0 0.00 0.00 0.00 67 1007.9
20170428071414 46 0 2.0 0.0 0.00 0.00 0.00 67 1008.0
20170428070431 46 0 3.0 0.0 0.00 0.00 0.00 66 1007.9
20170428065411 47 0 2.0 8.0 0.00 0.00 0.00 65 1008.0
20170428064414 47 0 3.0 8.0 0.00 0.00 0.00 64 1008.0
20170428063402 48 0 1.0 7.0 0.00 0.00 0.00 63 1008.0
20170428062406 49 0 0.0 0.0 0.00 0.00 0.00 62 1008.1
20170428061411 49 0 0.0 0.0 0.00 0.00 0.00 61 1008.1
20170428060415 49 0 0.0 0.0 0.00 0.00 0.00 60 1008.1
20170428055350 49 0 0.0 0.0 0.00 0.00 0.00 60 1008.0
20170428054401 50 0 0.0 0.0 0.00 0.00 0.00 60 1008.0
20170428053348 50 0 0.0 0.0 0.00 0.00 0.00 60 1007.8
20170428052330 50 0 0.0 0.0 0.00 0.00 0.00 59 1007.9
20170428051331 50 0 0.0 0.0 0.00 0.00 0.00 59 1007.7
20170428050335 50 0 0.0 0.0 0.00 0.00 0.00 58 1007.6
20170428045313 51 0 0.0 0.0 0.00 0.00 0.00 58 1007.6
20170428044311 51 0 0.0 0.0 0.00 0.00 0.00 57 1007.5
20170428043315 51 0 0.0 0.0 0.00 0.00 0.00 57 1007.4
20170428042304 51 0 0.0 0.0 0.00 0.00 0.00 57 1007.4
20170428041304 51 0 0.0 0.0 0.00 0.00 0.00 56 1007.5
20170428040249 52 0 0.0 0.0 0.00 0.00 0.00 55 1007.4
20170428035301 52 0 0.0 0.0 0.00 0.00 0.00 54 1007.4
20170428034235 52 0 0.0 0.0 0.00 0.00 0.00 53 1007.6
20170428033211 53 0 0.0 0.0 0.00 0.00 0.00 53 1007.5
20170428032210 53 0 0.0 0.0 0.00 0.00 0.00 52 1007.5
20170428031145 53 0 0.0 0.0 0.00 0.00 0.00 52 1007.5
20170428030125 53 0 0.0 0.0 0.00 0.00 0.00 52 1007.4
20170428025118 53 0 0.0 0.0 0.00 0.00 0.00 51 1007.3
20170428024051 53 0 0.0 0.0 0.00 0.00 0.00 51 1007.2
20170428023053 53 0 0.0 0.0 0.00 0.00 0.00 51 1007.1
20170428022028 53 0 0.0 0.0 0.00 0.00 0.00 52 1007.1
20170428020952 54 0 0.0 0.0 0.00 0.00 0.00 51 1007.0
20170428015957 54 0 0.0 0.0 0.00 0.00 0.00 50 1006.8
20170428014931 54 0 0.0 0.0 0.00 0.00 0.00 50 1006.6
20170428013857 54 0 0.0 0.0 0.00 0.00 0.00 50 1006.6
20170428012906 55 0 0.0 0.0 0.00 0.00 0.00 49 1006.4
20170428011910 55 0 0.0 0.0 0.00 0.00 0.00 48 1006.3
20170428010920 55 0 0.0 0.0 0.00 0.00 0.00 48 1006.4
20170428005927 55 0 0.0 0.0 0.00 0.00 0.00 48 1006.2
20170428004946 56 0 0.0 0.0 0.00 0.00 0.00 47 1006.1
20170428003957 56 0 0.0 0.0 0.00 0.00 0.00 46 1006.1
20170428002944 56 0 0.0 0.0 0.00 0.00 0.00 45 1006.0
20170428001954 57 0 0.0 0.0 0.00 0.00 0.00 44 1006.0
20170428000943 57 317 0.0 0.0 0.00 0.00 0.00 44 1006.0
20170427235909 57 319 0.0 0.0 0.00 0.00 0.00 43 1005.9
20170427234908 57 300 0.0 0.0 0.00 0.00 0.00 43 1005.9
20170427233843 57 269 0.0 0.0 0.00 0.00 0.00 44 1005.9
20170427232835 57 0 0.0 0.0 0.00 0.00 0.00 44 1005.9
20170427231812 56 211 0.0 0.0 0.00 0.00 0.00 44 1005.9
20170427230824 57 273 0.0 0.0 0.00 0.00 0.00 44 1005.9
20170427225843 57 212 0.0 0.0 0.00 0.00 0.00 44 1005.7
20170427224820 58 0 1.0 6.0 0.00 0.00 0.00 43 1005.5
20170427223837 58 209 1.0 6.0 0.00 0.00 0.00 43 1005.4
20170427222831 57 0 1.0 5.0 0.00 0.00 0.00 44 1005.3
20170427221838 57 0 1.0 6.0 0.00 0.00 0.00 44 1005.3
20170427220815 57 0 1.0 6.0 0.00 0.00 0.00 44 1005.4
20170427215746 57 0 1.0 5.0 0.00 0.00 0.00 45 1005.2
20170427214804 58 229 1.0 6.0 0.00 0.00 0.00 44 1005.2
20170427213803 58 0 1.0 5.0 0.00 0.00 0.00 45 1005.2
20170427212818 56 296 0.0 6.0 0.00 0.00 0.00 47 1005.2
20170427211824 55 222 1.0 6.0 0.00 0.00 0.00 47 1005.2
20170427210834 55 0 3.0 10.0 0.00 0.00 0.00 48 1005.3
20170427205819 55 309 2.0 8.0 0.00 0.00 0.00 48 1005.5
20170427204829 55 0 2.0 10.0 0.00 0.00 0.00 47 1005.5
20170427203836 56 309 1.0 0.0 0.00 0.00 0.00 48 1006.0
20170427202845 55 0 3.0 10.0 0.00 0.00 0.00 50 1006.0
20170427201825 55 54 2.0 10.0 0.00 0.00 0.00 50 1006.0
20170427200809 54 201 3.0 9.0 0.00 0.00 0.00 51 1006.1
20170427195822 54 18 2.0 7.0 0.00 0.00 0.00 52 1006.2
20170427194834 55 0 2.0 6.0 0.00 0.00 0.00 52 1006.2
20170427193854 53 0 1.0 7.0 0.00 0.00 0.00 53 1006.1
20170427192905 52 294 3.0 7.0 0.00 0.00 0.00 55 1006.4
20170427191849 52 0 2.0 8.0 0.00 0.00 0.00 56 1006.1
20170427190853 52 329 2.0 8.0 0.00 0.00 0.00 55 1006.2
20170427185845 51 0 1.0 2.0 0.00 0.00 0.00 58 1006.3
20170427184843 51 0 2.0 10.0 0.00 0.00 0.00 56 1006.7
20170427183841 51 0 2.0 10.0 0.00 0.00 0.00 56 1006.6
20170427182839 50 0 2.0 8.0 0.00 0.00 0.00 57 1006.8
20170427181839 49 0 3.0 7.0 0.00 0.00 0.00 58 1006.8
20170427180844 48 0 2.0 8.0 0.00 0.00 0.00 61 1007.1
20170427175856 48 0 2.0 8.0 0.00 0.00 0.00 61 1007.2
20170427174834 47 0 1.0 8.0 0.00 0.00 0.00 61 1007.3